Time;durP1;ratioP1;P1;durP2;ratioP2;P2;SDS_P1;SDS_P2;PMS_P1;PMS_P2;Temp;Humidity;BMP_temperature;BMP_pressure;BME280_temperature;BME280_humidity;BME280_pressure;Samples;Min_cycle;Max_cycle;Signal;HPM_P1;HPM_P2
2023/09/24 00:00:10;;;;;;;3.60;2.80;;;;;;;11.02;83.17;100259.06;219677;1259;207130;-72
2023/09/24 00:05:40;;;;;;;5.10;2.90;;;;;;;11.03;83.26;100253.83;218363;1259;140337;-72
2023/09/24 00:10:46;;;;;;;3.70;3.30;;;;;;;11.05;83.27;100257.98;217741;1260;139602;-72
2023/09/24 00:15:54;;;;;;;13.60;3.50;;;;;;;11.05;83.19;100265.62;218441;1259;140112;-72
2023/09/24 00:20:59;;;;;;;3.60;3.20;;;;;;;11.03;83.31;100268.02;217951;1259;140126;-72
2023/09/24 00:26:04;;;;;;;7.80;3.10;;;;;;;11.01;83.24;100263.10;217588;1260;139293;-72
2023/09/24 00:31:08;;;;;;;4.90;3.40;;;;;;;10.97;83.49;100256.55;217971;1260;139937;-71
2023/09/24 00:36:15;;;;;;;4.30;3.20;;;;;;;10.93;83.45;100248.97;217865;1259;139641;-72
2023/09/24 00:41:20;;;;;;;3.30;3.00;;;;;;;10.89;83.38;100256.11;217850;1260;139828;-72
2023/09/24 00:46:25;;;;;;;3.80;3.50;;;;;;;10.81;83.14;100263.38;217391;1260;139856;-71
2023/09/24 00:51:29;;;;;;;4.00;3.70;;;;;;;10.72;83.29;100254.59;217276;1260;140499;-70
2023/09/24 00:56:33;;;;;;;3.20;3.00;;;;;;;10.69;83.56;100249.55;217729;1260;139310;-72
2023/09/24 01:01:37;;;;;;;3.50;3.20;;;;;;;10.64;83.57;100252.64;217432;1260;140365;-71
2023/09/24 01:06:40;;;;;;;4.40;4.00;;;;;;;10.60;83.63;100256.81;218182;1260;140289;-69
2023/09/24 01:11:43;;;;;;;3.50;3.20;;;;;;;10.59;83.79;100263.19;218016;1259;139661;-72
2023/09/24 01:16:47;;;;;;;3.50;3.20;;;;;;;10.57;83.75;100265.63;218364;1259;140114;-72
2023/09/24 01:21:52;;;;;;;6.30;4.00;;;;;;;10.53;83.82;100267.10;217955;1259;221149;-72
2023/09/24 01:26:57;;;;;;;6.60;4.10;;;;;;;10.54;84.04;100269.59;217432;1260;140065;-71
2023/09/24 01:32:01;;;;;;;8.00;4.20;;;;;;;10.55;84.19;100275.00;217970;1259;140562;-68
2023/09/24 01:37:08;;;;;;;4.20;3.40;;;;;;;10.51;84.08;100280.57;217384;1262;139510;-71
2023/09/24 01:42:13;;;;;;;4.60;2.80;;;;;;;10.43;84.04;100281.20;220095;1259;140357;-72
2023/09/24 01:47:17;;;;;;;4.30;3.20;;;;;;;10.39;84.20;100294.80;219585;1259;140835;-72
2023/09/24 01:52:21;;;;;;;6.40;5.80;;;;;;;10.40;84.24;100307.61;219997;1259;141132;-73
2023/09/24 01:57:24;;;;;;;4.30;3.70;;;;;;;10.41;84.21;100310.30;218522;1260;140064;-71
2023/09/24 02:02:28;;;;;;;4.50;3.40;;;;;;;10.45;84.50;100309.58;219360;1260;142112;-72
2023/09/24 02:07:32;;;;;;;3.60;3.10;;;;;;;10.46;84.30;100314.33;218944;1258;139468;-72
2023/09/24 02:12:37;;;;;;;3.70;3.50;;;;;;;10.40;84.47;100326.42;218215;1259;140554;-71
2023/09/24 02:17:42;;;;;;;6.90;3.40;;;;;;;10.33;84.44;100337.70;217545;1259;139369;-69
2023/09/24 02:22:49;;;;;;;6.30;5.60;;;;;;;10.28;84.82;100343.36;218653;1259;140209;-71
2023/09/24 02:27:53;;;;;;;4.40;4.10;;;;;;;10.30;85.02;100350.35;217547;1262;140601;-71
2023/09/24 02:33:00;;;;;;;3.40;3.10;;;;;;;10.33;85.29;100353.16;217779;1260;140035;-71
2023/09/24 02:38:10;;;;;;;3.60;3.30;;;;;;;10.32;85.08;100367.84;217786;1262;142415;-71
2023/09/24 02:43:13;;;;;;;4.40;4.00;;;;;;;10.28;85.06;100377.14;217871;1259;139827;-71
2023/09/24 02:48:20;;;;;;;18.60;3.90;;;;;;;10.26;85.43;100381.83;217430;1259;139540;-71
2023/09/24 02:53:24;;;;;;;3.50;3.10;;;;;;;10.25;85.52;100394.38;218450;1260;140898;-71
2023/09/24 02:58:29;;;;;;;3.60;3.30;;;;;;;10.22;85.43;100398.16;218270;1259;139665;-71
2023/09/24 03:03:33;;;;;;;4.00;3.30;;;;;;;10.22;85.77;100411.65;217392;1262;139849;-71
2023/09/24 03:08:37;;;;;;;3.70;3.40;;;;;;;10.20;85.71;100411.16;217463;1260;140288;-71
2023/09/24 03:13:41;;;;;;;3.30;3.00;;;;;;;10.19;85.91;100416.23;217856;1262;161493;-70
2023/09/24 03:18:45;;;;;;;8.80;3.60;;;;;;;10.15;85.99;100429.65;218170;1260;139739;-70
2023/09/24 03:23:48;;;;;;;2.60;2.40;;;;;;;10.16;86.03;100439.04;217323;1260;139956;-71
2023/09/24 03:28:53;;;;;;;3.00;2.80;;;;;;;10.15;86.15;100435.02;217985;1262;152954;-70
2023/09/24 03:33:57;;;;;;;3.80;3.30;;;;;;;10.15;86.19;100432.15;218605;1262;139956;-69
2023/09/24 03:39:03;;;;;;;4.80;3.00;;;;;;;10.15;86.29;100439.48;217987;1262;140444;-71
2023/09/24 03:44:07;;;;;;;3.50;3.20;;;;;;;10.10;85.86;100450.91;220055;1260;140048;-72
2023/09/24 03:49:11;;;;;;;4.10;2.40;;;;;;;10.07;85.80;100450.02;219072;1260;140241;-71
2023/09/24 03:54:13;;;;;;;4.80;3.70;;;;;;;10.02;85.58;100453.40;219169;1259;140320;-71
2023/09/24 03:59:16;;;;;;;2.90;2.50;;;;;;;9.92;85.30;100461.47;220161;1259;139585;-72
2023/09/24 04:04:20;;;;;;;5.00;3.40;;;;;;;9.87;85.46;100474.80;218052;1262;139556;-70
2023/09/24 04:09:23;;;;;;;3.20;3.00;;;;;;;9.81;85.45;100470.61;217247;1260;139621;-69
2023/09/24 04:14:26;;;;;;;4.50;3.50;;;;;;;9.75;85.49;100476.67;217373;1262;139841;-71
2023/09/24 04:19:33;;;;;;;4.50;3.80;;;;;;;9.72;85.87;100487.67;217683;1260;140257;-69
2023/09/24 04:24:36;;;;;;;4.60;3.50;;;;;;;9.68;85.67;100484.36;217492;1262;139877;-68
2023/09/24 04:29:39;;;;;;;3.50;2.90;;;;;;;9.61;85.57;100489.41;218761;1259;140319;-70
2023/09/24 04:34:46;;;;;;;3.40;3.10;;;;;;;9.51;85.38;100502.66;217399;1262;140124;-69
2023/09/24 04:39:52;;;;;;;5.20;3.50;;;;;;;9.47;85.52;100503.46;217836;1260;140589;-70
2023/09/24 04:44:56;;;;;;;3.80;3.60;;;;;;;9.44;85.59;100498.52;217628;1260;139567;-68
2023/09/24 04:49:59;;;;;;;6.40;3.90;;;;;;;9.38;85.15;100510.98;217296;1259;139870;-71
2023/09/24 04:55:05;;;;;;;3.60;3.30;;;;;;;9.33;85.17;100515.44;217373;1260;140658;-69
2023/09/24 05:00:10;;;;;;;2.60;2.40;;;;;;;9.23;85.07;100522.29;217351;1262;139769;-72
2023/09/24 05:05:15;;;;;;;2.80;2.60;;;;;;;9.13;85.19;100540.40;217104;1260;139943;-71
2023/09/24 05:10:19;;;;;;;3.60;3.30;;;;;;;9.08;85.51;100540.04;217846;1260;139568;-71
2023/09/24 05:15:23;;;;;;;4.40;4.00;;;;;;;9.14;85.70;100547.60;218330;1262;140426;-72
2023/09/24 05:20:30;;;;;;;4.80;4.00;;;;;;;9.22;86.10;100551.34;217210;1261;139359;-71
2023/09/24 05:25:37;;;;;;;5.70;4.80;;;;;;;9.29;86.13;100557.44;217249;1260;139940;-67
2023/09/24 05:30:40;;;;;;;;;;;;;;;9.36;86.11;100563.83;217492;1262;139900;-74
2023/09/24 05:35:52;;;;;;;3.90;3.60;;;;;;;9.34;85.87;100568.81;217846;1262;126028;-77
2023/09/24 05:40:56;;;;;;;4.30;3.90;;;;;;;9.34;85.74;100574.92;218093;1258;139628;-70
2023/09/24 05:46:01;;;;;;;4.50;3.90;;;;;;;9.33;85.37;100586.75;218198;1260;139478;-69
2023/09/24 05:51:05;;;;;;;6.60;5.20;;;;;;;9.33;85.49;100585.56;217911;1260;139792;-68
2023/09/24 05:56:09;;;;;;;7.10;5.40;;;;;;;9.42;86.05;100582.83;217943;1260;140679;-69
2023/09/24 06:01:16;;;;;;;4.50;4.10;;;;;;;9.56;86.14;100590.36;217953;1260;140505;-69
2023/09/24 06:06:20;;;;;;;;;;;;;;;9.67;86.01;100605.59;217843;1260;140064;-81
2023/09/24 06:11:23;;;;;;;5.40;3.90;;;;;;;9.74;86.12;100608.33;219255;1260;126221;-73
2023/09/24 06:16:27;;;;;;;4.10;3.80;;;;;;;9.85;85.90;100610.83;217083;1260;140388;-69
2023/09/24 06:21:31;;;;;;;4.30;3.80;;;;;;;9.98;86.40;100615.32;217296;1260;139419;-72
2023/09/24 06:26:38;;;;;;;5.20;4.80;;;;;;;10.24;86.93;100618.23;217891;1260;140798;-74
2023/09/24 06:31:40;;;;;;;5.90;5.40;;;;;;;10.48;87.08;100624.73;217735;1262;140276;-74
2023/09/24 06:36:43;;;;;;;5.40;5.00;;;;;;;10.73;87.65;100626.14;218187;1257;140704;-79
2023/09/24 06:41:48;;;;;;;4.20;3.90;;;;;;;10.99;87.96;100630.08;217639;1257;139467;-73
2023/09/24 06:46:53;;;;;;;6.80;6.10;;;;;;;11.31;88.27;100640.32;218229;1256;141795;-71
2023/09/24 06:51:58;;;;;;;6.20;5.60;;;;;;;11.85;88.54;100641.23;218218;1257;140441;-69
2023/09/24 06:57:02;;;;;;;6.00;5.50;;;;;;;12.32;88.15;100639.70;218114;1257;140274;-69
2023/09/24 07:02:06;;;;;;;6.40;5.80;;;;;;;12.63;87.62;100644.55;219298;1257;140994;-69
2023/09/24 07:07:13;;;;;;;12.20;7.00;;;;;;;12.87;87.11;100654.42;217990;1259;555156;-68
2023/09/24 07:12:17;;;;;;;11.00;5.20;;;;;;;13.08;86.74;100654.05;218778;1259;140427;-69
2023/09/24 07:17:21;;;;;;;5.30;4.80;;;;;;;13.83;87.01;100653.69;218010;1257;139987;-69
2023/09/24 07:22:26;;;;;;;5.90;5.30;;;;;;;15.00;86.63;100658.09;219866;1257;139872;-70
2023/09/24 07:27:30;;;;;;;41.00;7.70;;;;;;;16.30;86.34;100667.70;218902;1259;141023;-72
2023/09/24 07:32:33;;;;;;;5.90;5.30;;;;;;;17.38;84.71;100669.31;219279;1257;141166;-74
2023/09/24 07:37:39;;;;;;;6.20;4.90;;;;;;;18.06;83.04;100669.88;219788;1256;140591;-75
2023/09/24 07:42:46;;;;;;;;;;;;;;;18.52;81.37;100680.68;219188;1258;140355;-73
2023/09/24 07:47:52;;;;;;;5.00;4.50;;;;;;;19.17;80.05;100683.96;220460;1255;127120;-76
2023/09/24 07:52:58;;;;;;;4.60;4.10;;;;;;;19.59;78.45;100684.80;218086;1256;139980;-72
2023/09/24 07:58:02;;;;;;;5.50;5.00;;;;;;;19.61;76.75;100702.77;218679;1259;140434;-70
2023/09/24 08:03:06;;;;;;;7.90;4.70;;;;;;;19.64;76.12;100708.88;217993;1259;140493;-68
2023/09/24 08:08:12;;;;;;;4.80;4.30;;;;;;;19.82;75.32;100702.45;218101;1257;139993;-68
2023/09/24 08:13:16;;;;;;;5.00;4.60;;;;;;;19.88;74.52;100705.08;218813;1259;139725;-67
2023/09/24 08:18:21;;;;;;;6.90;5.00;;;;;;;19.91;73.82;100709.61;218538;1260;141034;-68
2023/09/24 08:23:28;;;;;;;7.30;5.00;;;;;;;19.95;72.94;100709.73;219088;1257;140683;-68
2023/09/24 08:28:32;;;;;;;6.10;3.90;;;;;;;19.90;72.27;100708.75;219870;1259;141552;-70
2023/09/24 08:33:36;;;;;;;4.00;3.70;;;;;;;19.99;71.93;100712.91;217482;1259;140347;-71
2023/09/24 08:38:38;;;;;;;4.00;3.70;;;;;;;20.03;71.08;100720.33;218739;1260;140718;-69
2023/09/24 08:43:43;;;;;;;5.20;4.40;;;;;;;19.92;70.18;100727.05;217774;1259;140777;-69
2023/09/24 08:48:46;;;;;;;3.50;3.30;;;;;;;19.82;69.99;100735.95;218992;1256;140646;-70
2023/09/24 08:53:49;;;;;;;3.40;3.20;;;;;;;19.76;69.76;100741.79;217843;1259;140530;-69
2023/09/24 08:58:52;;;;;;;4.20;3.10;;;;;;;19.76;69.41;100734.65;217818;1257;247503;-71
2023/09/24 09:03:55;;;;;;;3.10;2.90;;;;;;;19.82;69.06;100740.98;218722;1259;141771;-69
2023/09/24 09:08:59;;;;;;;4.10;3.30;;;;;;;19.83;68.51;100748.23;218620;1259;140357;-70
2023/09/24 09:14:03;;;;;;;6.80;4.30;;;;;;;19.78;68.10;100760.73;218898;1257;139863;-70
2023/09/24 09:19:06;;;;;;;3.30;3.00;;;;;;;19.83;68.15;100758.58;218997;1257;140620;-70
2023/09/24 09:24:25;;;;;;;4.00;3.20;;;;;;;19.90;67.82;100764.02;220494;1259;141534;-70
2023/09/24 09:29:29;;;;;;;21.90;3.90;;;;;;;20.01;67.53;100774.23;220537;1257;140707;-72
2023/09/24 09:34:34;;;;;;;3.10;2.90;;;;;;;20.19;66.80;100769.52;219225;1259;140953;-70
2023/09/24 09:39:38;;;;;;;12.80;3.40;;;;;;;20.20;65.87;100779.63;219420;1259;140161;-71
2023/09/24 09:44:43;;;;;;;4.90;3.20;;;;;;;20.25;65.66;100779.99;218122;1260;140069;-71
2023/09/24 09:49:57;;;;;;;5.20;3.20;;;;;;;20.39;65.39;100784.02;219035;1257;139938;-71
2023/09/24 09:55:05;;;;;;;3.80;3.10;;;;;;;20.52;65.21;100787.12;217775;1260;140507;-67
2023/09/24 10:00:11;;;;;;;3.80;3.00;;;;;;;20.67;64.91;100791.15;218407;1258;139560;-68
2023/09/24 10:05:16;;;;;;;6.00;3.10;;;;;;;20.69;64.17;100797.98;217686;1260;140125;-67
2023/09/24 10:10:32;;;;;;;2.70;2.40;;;;;;;20.77;64.02;100798.87;219155;1260;140168;-70
2023/09/24 10:15:36;;;;;;;2.70;2.50;;;;;;;20.89;63.56;100796.33;218059;1260;138378;-70
2023/09/24 10:20:53;;;;;;;5.20;3.20;;;;;;;20.94;63.28;100795.38;218198;1257;139626;-68
2023/09/24 10:26:06;;;;;;;6.40;3.30;;;;;;;20.94;62.65;100802.54;218234;1257;139228;-68
2023/09/24 10:31:12;;;;;;;3.70;2.90;;;;;;;20.84;62.00;100805.16;218819;1257;140443;-71
2023/09/24 10:36:23;;;;;;;3.10;2.90;;;;;;;20.81;62.09;100806.38;218368;1257;140411;-72
2023/09/24 10:41:27;;;;;;;5.10;2.80;;;;;;;20.77;61.45;100803.80;217980;1258;138967;-72
2023/09/24 10:46:32;;;;;;;3.70;2.40;;;;;;;20.95;61.55;100803.66;218462;1257;139608;-71
2023/09/24 10:51:40;;;;;;;3.70;2.80;;;;;;;21.16;61.34;100796.80;217952;1257;139099;-68
2023/09/24 10:56:48;;;;;;;4.10;3.30;;;;;;;21.32;60.71;100800.60;217843;1257;139849;-74
2023/09/24 11:01:52;;;;;;;3.40;3.10;;;;;;;21.44;60.25;100803.88;218696;1256;139959;-68
2023/09/24 11:07:08;;;;;;;3.70;3.40;;;;;;;21.50;59.74;100802.26;217752;1260;140230;-70
2023/09/24 11:12:11;;;;;;;3.90;3.40;;;;;;;21.53;59.40;100800.29;218909;1257;141372;-76
2023/09/24 11:17:15;;;;;;;3.50;3.20;;;;;;;21.62;59.24;100794.98;218403;1258;140389;-69
2023/09/24 11:22:24;;;;;;;4.10;3.70;;;;;;;21.83;59.12;100790.84;217795;1260;141341;-69
2023/09/24 11:27:28;;;;;;;4.20;3.90;;;;;;;21.98;58.58;100792.52;219266;1257;139054;-75
2023/09/24 11:32:31;;;;;;;3.90;3.50;;;;;;;22.11;58.11;100788.73;220703;1256;139122;-70
2023/09/24 11:37:51;;;;;;;5.30;2.40;;;;;;;21.80;57.51;100793.64;219547;1256;138919;-70
2023/09/24 11:43:00;;;;;;;3.90;3.40;;;;;;;21.49;57.18;100791.54;219842;1257;139381;-71
2023/09/24 11:48:05;;;;;;;2.70;2.50;;;;;;;21.29;57.15;100791.61;218764;1257;140471;-74
2023/09/24 11:53:12;;;;;;;3.00;2.80;;;;;;;21.21;57.04;100790.81;218108;1259;142790;-72
2023/09/24 11:58:17;;;;;;;3.10;2.80;;;;;;;21.34;56.81;100791.14;219318;1257;139695;-72
2023/09/24 12:03:22;;;;;;;3.10;2.80;;;;;;;21.48;56.84;100786.48;218167;1257;138997;-67
2023/09/24 12:08:25;;;;;;;3.20;2.30;;;;;;;21.72;56.51;100786.38;219025;1257;139950;-68
2023/09/24 12:13:31;;;;;;;4.70;2.50;;;;;;;21.70;55.79;100783.85;218528;1256;139071;-68
2023/09/24 12:18:36;;;;;;;3.70;3.50;;;;;;;21.79;55.65;100779.36;218294;1257;139242;-68
2023/09/24 12:23:45;;;;;;;4.00;2.60;;;;;;;21.64;55.15;100779.36;218417;1257;139442;-67
2023/09/24 12:28:49;;;;;;;3.10;2.30;;;;;;;21.53;55.04;100777.98;218038;1257;139525;-72
2023/09/24 12:33:53;;;;;;;2.70;2.00;;;;;;;21.25;54.44;100782.07;218177;1257;139470;-72
2023/09/24 12:38:57;;;;;;;3.30;2.10;;;;;;;20.95;54.35;100779.33;218072;1257;138698;-72
2023/09/24 12:44:01;;;;;;;2.20;2.10;;;;;;;20.55;54.96;100779.96;218767;1256;139138;-71
2023/09/24 12:49:04;;;;;;;2.70;2.00;;;;;;;20.79;55.76;100776.25;218140;1257;139918;-70
2023/09/24 12:54:07;;;;;;;4.30;1.80;;;;;;;21.21;55.79;100773.85;218566;1258;140160;-72
2023/09/24 12:59:10;;;;;;;2.00;1.90;;;;;;;21.52;55.20;100776.31;218180;1257;141391;-73
2023/09/24 13:04:15;;;;;;;5.20;2.50;;;;;;;21.64;54.98;100780.42;218110;1257;139762;-70
2023/09/24 13:09:20;;;;;;;2.50;2.30;;;;;;;21.65;54.51;100785.93;219969;1256;139108;-71
2023/09/24 13:14:24;;;;;;;2.30;2.00;;;;;;;21.38;54.03;100787.92;218395;1257;140291;-73
2023/09/24 13:19:29;;;;;;;2.40;2.00;;;;;;;21.04;53.97;100791.16;219460;1256;139468;-71
2023/09/24 13:24:39;;;;;;;2.40;2.20;;;;;;;20.53;53.72;100794.00;219335;1256;139268;-71
2023/09/24 13:29:44;;;;;;;2.60;2.40;;;;;;;20.19;54.21;100797.08;218876;1257;139091;-71
2023/09/24 13:34:48;;;;;;;1.90;1.80;;;;;;;20.25;54.76;100796.84;218050;1257;139501;-71
2023/09/24 13:39:53;;;;;;;2.00;1.80;;;;;;;20.40;55.09;100793.92;218829;1256;139076;-69
2023/09/24 13:45:07;;;;;;;3.30;2.30;;;;;;;20.28;54.72;100797.48;218896;1256;140183;-70
2023/09/24 13:50:13;;;;;;;2.90;2.00;;;;;;;20.08;54.72;100803.91;218063;1257;139813;-71
2023/09/24 13:55:18;;;;;;;2.70;2.20;;;;;;;20.19;54.94;100801.45;218214;1259;140167;-69
2023/09/24 14:00:21;;;;;;;4.00;2.60;;;;;;;20.40;54.93;100796.84;219146;1256;139294;-66
2023/09/24 14:05:26;;;;;;;4.80;2.20;;;;;;;20.59;54.79;100795.13;218261;1256;139025;-67
2023/09/24 14:15:53;;;;;;;2.50;2.30;;;;;;;20.96;54.71;100798.52;218167;1256;139789;-68
2023/09/24 14:20:58;;;;;;;4.60;2.90;;;;;;;20.95;54.06;100808.06;218582;1256;138985;-68
2023/09/24 14:26:02;;;;;;;2.60;2.40;;;;;;;20.65;53.39;100811.42;218039;1257;138978;-67
2023/09/24 14:31:07;;;;;;;3.50;2.20;;;;;;;20.50;53.06;100810.05;218062;1257;139435;-67
2023/09/24 14:36:11;;;;;;;2.70;2.40;;;;;;;20.35;52.77;100804.64;218319;1256;138639;-71
2023/09/24 14:41:15;;;;;;;4.00;2.90;;;;;;;20.21;53.07;100810.33;217978;1257;138759;-71
2023/09/24 14:46:19;;;;;;;3.10;2.80;;;;;;;20.12;53.90;100809.59;218161;1259;139221;-70
2023/09/24 14:51:23;;;;;;;3.70;3.40;;;;;;;19.86;54.41;100819.17;219015;1256;138810;-68
2023/09/24 14:56:27;;;;;;;3.90;2.90;;;;;;;19.52;54.20;100826.67;218292;1257;140934;-69
2023/09/24 15:01:30;;;;;;;2.70;2.40;;;;;;;19.28;54.67;100829.14;218466;1257;139665;-70
2023/09/24 15:06:34;;;;;;;2.20;2.10;;;;;;;19.23;55.52;100836.44;218653;1255;139397;-70
2023/09/24 15:11:39;;;;;;;7.70;2.30;;;;;;;19.29;56.06;100834.81;218556;1257;139718;-70
2023/09/24 15:16:45;;;;;;;2.40;2.20;;;;;;;19.31;56.64;100839.52;219055;1257;141038;-68
2023/09/24 15:21:49;;;;;;;4.60;2.20;;;;;;;19.28;56.94;100839.89;219726;1255;140310;-67
2023/09/24 15:26:53;;;;;;;3.70;3.10;;;;;;;19.21;57.26;100838.05;218873;1257;139966;-70
2023/09/24 15:31:57;;;;;;;2.90;2.60;;;;;;;19.09;57.67;100838.80;218453;1257;236099;-68
2023/09/24 15:37:01;;;;;;;3.20;2.70;;;;;;;18.96;58.08;100842.64;218713;1256;139443;-68
2023/09/24 15:42:04;;;;;;;5.50;2.50;;;;;;;18.86;58.74;100846.05;218530;1256;140296;-72
2023/09/24 15:47:08;;;;;;;3.10;2.80;;;;;;;18.82;59.55;100852.13;218629;1256;144303;-67
2023/09/24 15:52:12;;;;;;;5.00;2.60;;;;;;;18.76;60.19;100855.50;218151;1257;141086;-70
2023/09/24 15:57:15;;;;;;;3.00;2.30;;;;;;;18.67;60.16;100855.83;218294;1255;138741;-72
2023/09/24 16:02:20;;;;;;;3.20;2.40;;;;;;;18.58;60.37;100858.09;219644;1256;139524;-74
2023/09/24 16:07:23;;;;;;;2.90;2.70;;;;;;;18.42;60.55;100859.41;219217;1256;139788;-72
2023/09/24 16:12:28;;;;;;;3.90;3.50;;;;;;;18.24;60.66;100864.46;218222;1255;139338;-72
2023/09/24 16:17:33;;;;;;;3.10;2.90;;;;;;;18.03;60.75;100868.77;219964;1255;139990;-72
2023/09/24 16:22:37;;;;;;;4.60;3.20;;;;;;;17.81;61.09;100871.79;218226;1259;139114;-72
2023/09/24 16:27:43;;;;;;;3.70;3.40;;;;;;;17.56;61.33;100875.55;217629;1257;139976;-68
2023/09/24 16:32:47;;;;;;;2.60;2.40;;;;;;;17.30;61.76;100878.55;218185;1257;138992;-73
2023/09/24 16:37:50;;;;;;;4.00;2.90;;;;;;;17.01;62.12;100886.89;218352;1257;141769;-74
2023/09/24 16:42:54;;;;;;;2.80;2.60;;;;;;;16.72;62.66;100899.09;218105;1256;139965;-68
2023/09/24 16:48:01;;;;;;;3.40;2.80;;;;;;;16.49;63.52;100912.48;218110;1258;139566;-73
2023/09/24 16:53:06;;;;;;;;;;;;;;;16.10;63.91;100917.41;218299;1256;139483;-69
2023/09/24 16:58:09;;;;;;;9.70;3.40;;;;;;;15.79;65.05;100920.74;218382;1257;127144;-68
2023/09/24 17:03:14;;;;;;;4.10;2.40;;;;;;;15.70;66.03;100922.23;218411;1256;139498;-69
2023/09/24 17:08:24;;;;;;;2.90;2.70;;;;;;;15.62;66.44;100929.86;218924;1256;141675;-75
2023/09/24 17:13:35;;;;;;;4.80;3.40;;;;;;;15.50;66.89;100934.51;218113;1256;139757;-73
2023/09/24 17:18:50;;;;;;;3.10;2.70;;;;;;;15.36;67.19;100937.16;218612;1256;139554;-76
2023/09/24 17:24:00;;;;;;;6.00;2.90;;;;;;;15.24;67.47;100945.48;218871;1257;141512;-82
2023/09/24 17:29:06;;;;;;;9.30;3.70;;;;;;;15.08;67.90;100947.34;218372;1256;140448;-75
2023/09/24 17:34:15;;;;;;;2.60;2.50;;;;;;;14.89;68.12;100948.80;218949;1257;140568;-76
2023/09/24 17:39:22;;;;;;;2.80;2.60;;;;;;;14.64;68.13;100957.01;219191;1256;141239;-74
2023/09/24 17:44:26;;;;;;;3.60;3.40;;;;;;;14.40;68.67;100961.73;219533;1256;140381;-70
2023/09/24 17:49:34;;;;;;;3.10;2.90;;;;;;;14.26;68.95;100963.71;218567;1256;140018;-74
2023/09/24 17:54:38;;;;;;;3.00;2.80;;;;;;;14.07;69.01;100973.23;218724;1256;139819;-72
2023/09/24 17:59:44;;;;;;;4.00;3.20;;;;;;;13.84;69.43;100980.54;218804;1256;139928;-67
2023/09/24 18:04:48;;;;;;;4.10;2.80;;;;;;;13.68;69.67;100988.37;218317;1256;139770;-71
2023/09/24 18:09:52;;;;;;;2.70;2.50;;;;;;;13.52;70.19;100998.61;218257;1257;140644;-69
2023/09/24 18:14:56;;;;;;;3.50;2.70;;;;;;;13.31;70.46;101008.64;218267;1256;139496;-73
2023/09/24 18:20:02;;;;;;;3.80;3.20;;;;;;;13.18;71.02;101018.81;218289;1259;140885;-71
2023/09/24 18:25:07;;;;;;;4.00;3.10;;;;;;;13.04;71.52;101027.33;218364;1256;140307;-72
2023/09/24 18:30:12;;;;;;;6.60;3.50;;;;;;;12.99;71.80;101031.52;218642;1255;139890;-73
2023/09/24 18:35:20;;;;;;;4.00;3.40;;;;;;;12.88;71.63;101043.42;218501;1255;140706;-73
2023/09/24 18:40:24;;;;;;;4.00;3.70;;;;;;;12.75;72.00;101047.03;218059;1257;140801;-72
2023/09/24 18:45:28;;;;;;;3.90;3.20;;;;;;;12.67;72.29;101042.63;219388;1256;140594;-75
2023/09/24 18:50:35;;;;;;;8.20;4.10;;;;;;;12.59;72.50;101046.02;219629;1256;139389;-71
2023/09/24 18:55:41;;;;;;;4.20;3.80;;;;;;;12.50;72.61;101044.48;217976;1259;139558;-73
2023/09/24 19:00:45;;;;;;;5.40;3.80;;;;;;;12.40;72.76;101048.73;218937;1257;140802;-74
2023/09/24 19:05:53;;;;;;;3.30;3.10;;;;;;;12.23;72.58;101046.73;217738;1257;475470;-71
2023/09/24 19:11:00;;;;;;;5.30;3.90;;;;;;;12.08;73.01;101044.14;218483;1256;140841;-73
2023/09/24 19:16:09;;;;;;;5.10;4.20;;;;;;;12.01;73.47;101038.23;220495;1256;140138;-80
2023/09/24 19:21:12;;;;;;;4.10;3.70;;;;;;;11.96;73.45;101034.67;220446;1256;141265;-76
2023/09/24 19:26:17;;;;;;;4.00;3.50;;;;;;;11.91;73.79;101027.48;220428;1255;140374;-72
2023/09/24 19:31:19;;;;;;;3.80;3.50;;;;;;;11.86;73.96;101030.21;219847;1256;140415;-72
2023/09/24 19:36:22;;;;;;;3.40;3.10;;;;;;;11.67;73.47;101033.23;218399;1257;140343;-72
2023/09/24 19:41:25;;;;;;;4.10;3.60;;;;;;;11.43;73.73;101037.48;218257;1256;139997;-70
2023/09/24 19:46:27;;;;;;;4.40;4.00;;;;;;;11.25;74.25;101034.48;219319;1256;141571;-70
2023/09/24 19:51:30;;;;;;;4.60;3.90;;;;;;;11.17;74.92;101028.29;219618;1259;139914;-70
2023/09/24 19:56:33;;;;;;;5.70;4.70;;;;;;;11.20;75.29;101028.50;217821;1256;139714;-73
2023/09/24 20:01:36;;;;;;;5.30;3.50;;;;;;;11.18;75.19;101026.60;217646;1256;140313;-73
2023/09/24 20:06:39;;;;;;;4.50;4.10;;;;;;;11.07;75.20;101034.15;217214;1257;140533;-73
2023/09/24 20:11:43;;;;;;;4.90;3.90;;;;;;;10.99;75.73;101037.21;218247;1256;140925;-73
2023/09/24 20:16:49;;;;;;;3.90;3.60;;;;;;;11.00;76.24;101037.83;217573;1257;139933;-73
2023/09/24 20:21:53;;;;;;;10.50;5.20;;;;;;;10.97;76.25;101036.36;218318;1255;140394;-70
2023/09/24 20:26:56;;;;;;;9.70;5.00;;;;;;;10.96;76.41;101029.45;218114;1257;140142;-74
2023/09/24 20:31:59;;;;;;;4.70;4.30;;;;;;;10.88;76.32;101035.16;219524;1256;141230;-74
2023/09/24 20:37:04;;;;;;;4.80;4.00;;;;;;;10.82;76.73;101039.33;218008;1257;244452;-73
2023/09/24 20:42:07;;;;;;;3.50;3.30;;;;;;;10.78;76.72;101041.83;217679;1259;140188;-74
2023/09/24 20:47:24;;;;;;;4.80;3.70;;;;;;;10.69;76.87;101041.96;217427;1257;139447;-76
2023/09/24 20:52:27;;;;;;;7.30;6.10;;;;;;;10.60;77.11;101047.27;219104;1256;139855;-76
2023/09/24 20:57:30;;;;;;;7.50;4.70;;;;;;;10.54;77.52;101051.61;218232;1257;141463;-70
2023/09/24 21:02:33;;;;;;;4.80;4.40;;;;;;;10.55;77.87;101046.52;219489;1255;225888;-72
2023/09/24 21:07:36;;;;;;;9.10;4.60;;;;;;;10.58;77.85;101039.77;219474;1258;139932;-71
2023/09/24 21:12:41;;;;;;;4.30;3.90;;;;;;;10.57;77.84;101039.84;219164;1256;139899;-71
2023/09/24 21:17:45;;;;;;;4.60;4.20;;;;;;;10.54;78.00;101037.98;220543;1256;140513;-73
2023/09/24 21:22:50;;;;;;;7.20;6.00;;;;;;;10.53;77.94;101035.45;219865;1256;140577;-71
2023/09/24 21:27:57;;;;;;;4.70;4.40;;;;;;;10.46;77.74;101035.10;220522;1257;140353;-72
2023/09/24 21:33:02;;;;;;;5.20;4.60;;;;;;;10.38;78.03;101038.47;220144;1256;139339;-72
2023/09/24 21:38:06;;;;;;;5.70;5.20;;;;;;;10.37;78.06;101044.91;219567;1259;139992;-70
2023/09/24 21:43:13;;;;;;;6.00;4.40;;;;;;;10.34;77.98;101039.73;219042;1256;140390;-72
2023/09/24 21:48:19;;;;;;;7.40;5.30;;;;;;;10.30;78.26;101042.66;217822;1257;139911;-72
2023/09/24 21:53:23;;;;;;;5.80;4.50;;;;;;;10.25;78.19;101046.87;217563;1256;140133;-74
2023/09/24 21:58:26;;;;;;;5.00;4.20;;;;;;;10.17;78.33;101050.46;218185;1256;141274;-73
2023/09/24 22:03:31;;;;;;;4.90;4.40;;;;;;;10.08;78.35;101048.17;219019;1256;142622;-73
2023/09/24 22:08:38;;;;;;;7.00;4.50;;;;;;;10.02;78.61;101051.20;218140;1256;140767;-73
2023/09/24 22:13:41;;;;;;;5.40;4.50;;;;;;;9.99;78.67;101054.48;218390;1259;140935;-69
2023/09/24 22:18:46;;;;;;;5.20;3.90;;;;;;;9.95;78.79;101053.24;218639;1256;140770;-70
2023/09/24 22:23:51;;;;;;;5.20;4.30;;;;;;;9.81;78.68;101055.92;217863;1257;139828;-69
2023/09/24 22:28:55;;;;;;;6.30;5.70;;;;;;;9.70;78.84;101062.30;218430;1256;140141;-70
2023/09/24 22:33:58;;;;;;;7.50;4.40;;;;;;;9.69;79.28;101062.83;217676;1257;141673;-69
2023/09/24 22:39:02;;;;;;;7.60;4.80;;;;;;;9.69;79.30;101066.44;217930;1257;141905;-70
2023/09/24 22:44:06;;;;;;;4.40;4.00;;;;;;;9.68;79.67;101063.40;218953;1257;139368;-71
2023/09/24 22:49:09;;;;;;;4.40;4.00;;;;;;;9.66;79.59;101063.51;218482;1256;141998;-71
2023/09/24 22:54:12;;;;;;;4.20;3.80;;;;;;;9.60;79.64;101066.38;217841;1257;143139;-74
2023/09/24 22:59:15;;;;;;;5.80;3.60;;;;;;;9.58;79.76;101066.48;220314;1259;140536;-70
2023/09/24 23:04:18;;;;;;;3.70;3.20;;;;;;;9.50;79.53;101068.16;218097;1257;141757;-69
2023/09/24 23:09:22;;;;;;;4.20;3.30;;;;;;;9.43;79.75;101072.46;219670;1256;140455;-72
2023/09/24 23:14:25;;;;;;;4.10;3.80;;;;;;;9.42;80.07;101079.17;220470;1256;140548;-75